Bookmark and Share
Track history (hours):
 

Al Mirqab

Last reported at 2013-Oct-16 07:10 UTC. Time now 2014-Apr-18 03:15 UTC.
Position N 53°32' E 009°57'.
Warning: this ship's position is months out of date.

Length 200 m; draft 5.5 m.

Type: Pleasure craft. MMSI: 319361000.

NotesDate/timePositionNaut miles runAvg speedWind from/ knotsBaromVisibWave heightAir tempDewpointWater temp
2013-Oct-16 07:10N 53°32' E 009°57'0 0.0
2013-Oct-16 06:33N 53°32' E 009°57'0 0.0
2013-Oct-16 05:31N 53°32' E 009°57'0 0.0
2013-Oct-16 04:32N 53°32' E 009°57'0 0.0
2013-Oct-16 02:29N 53°32' E 009°57'0 0.0
2013-Oct-16 01:19N 53°32' E 009°57'0 0.0
2013-Oct-15 23:33N 53°32' E 009°57'0 0.0
2013-Oct-15 22:28N 53°32' E 009°57'0 0.0
2013-Oct-15 21:23N 53°32' E 009°57'0 0.0
2013-Oct-15 20:33N 53°32' E 009°57'0 0.0
2013-Oct-15 19:24N 53°32' E 009°57'0 0.0
2013-Oct-15 18:32N 53°32' E 009°57'0 0.0
2013-Oct-15 17:29N 53°32' E 009°57'0 0.0
2013-Oct-15 16:26N 53°32' E 009°57'0 0.0
2013-Oct-15 13:14N 53°32' E 009°57'0 0.0
2013-Oct-15 12:33N 53°32' E 009°57'0 0.0
2013-Oct-15 11:16N 53°32' E 009°57'1 2.0
2013-Oct-15 10:33N 53°32' E 009°55'1110.2
2013-Oct-15 09:31N 53°35' E 009°37'1313.8
2013-Oct-15 08:33N 53°45' E 009°24'1212.4
2013-Oct-15 07:33N 53°53' E 009°07'1313.5
2013-Oct-15 06:33N 53°51' E 008°45'1515.2
2013-Oct-15 05:33N 53°59' E 008°22'1614.7
2013-Oct-15 04:29N 53°57' E 007°56'3 2.9
2013-Oct-15 03:33N 53°56' E 007°52'0 0.0
2013-Oct-15 02:10N 53°55' E 007°52'0 0.1
2013-Oct-15 01:29N 53°56' E 007°52'0 0.0
2013-Oct-15 00:06N 53°56' E 007°52'0 0.0
2013-Oct-14 23:27N 53°56' E 007°52'0 0.0
2013-Oct-14 22:31N 53°56' E 007°52'0 0.0
2013-Oct-14 21:31N 53°56' E 007°52'0 0.0
2013-Oct-14 20:32N 53°56' E 007°52'0 0.0
2013-Oct-14 19:27N 53°56' E 007°52'0 0.1
2013-Oct-14 18:33N 53°56' E 007°52'0 0.1
2013-Oct-14 17:31N 53°55' E 007°52'0 0.0
2013-Oct-14 16:32N 53°55' E 007°52'0 0.0
2013-Oct-14 15:18N 53°55' E 007°52'0 0.0
2013-Oct-14 14:27N 53°55' E 007°52'0 0.0
2013-Oct-14 13:31N 53°55' E 007°52'0 0.0
2013-Oct-14 12:05N 53°55' E 007°52'0 0.0
2013-Oct-14 10:32N 53°55' E 007°52'9 9.6
2013-Oct-14 09:33N 53°50' E 008°05'1616.4
2013-Oct-14 08:33N 53°39' E 008°25'9 8.5
2013-Oct-14 07:32N 53°32' E 008°35'1 1.0
2013-Oct-14 06:33N 53°31' E 008°35'1 0.9
2013-Oct-14 05:32N 53°30' E 008°35'0 0.0
2013-Oct-14 04:33N 53°30' E 008°35'0 0.0
2013-Oct-14 03:31N 53°30' E 008°35'0 0.0
2013-Oct-14 02:31N 53°30' E 008°35'0 0.0
2013-Oct-14 01:32N 53°30' E 008°35'0 0.0
2013-Oct-14 00:33N 53°30' E 008°35'0 0.0
2013-Oct-13 23:33N 53°30' E 008°35'0 0.0
2013-Oct-13 22:31N 53°30' E 008°35'0 0.0
2013-Oct-13 21:32N 53°30' E 008°35'0 0.0
2013-Oct-13 20:32N 53°30' E 008°35'0 0.0
2013-Oct-13 19:33N 53°30' E 008°35'0 0.0
2013-Oct-13 18:31N 53°30' E 008°35'0 0.0
2013-Oct-13 17:31N 53°30' E 008°35'0 0.0
2013-Oct-13 16:32N 53°30' E 008°35'0 0.0
2013-Oct-13 15:30N 53°30' E 008°35'0 0.0
2013-Oct-13 14:33N 53°30' E 008°35'0 0.0
2013-Oct-13 13:31N 53°30' E 008°35'0 0.0
2013-Oct-13 12:32N 53°30' E 008°35'0 0.0
2013-Oct-13 11:32N 53°30' E 008°35'0 0.0
2013-Oct-13 10:33N 53°30' E 008°35'0 0.0
2013-Oct-13 09:31N 53°30' E 008°35'0 0.0
2013-Oct-13 08:31N 53°30' E 008°35'0 0.0
2013-Oct-13 07:32N 53°30' E 008°35'0 0.0
2013-Oct-13 06:33N 53°30' E 008°35'0 0.0
2013-Oct-13 05:33N 53°30' E 008°35'0 0.0
2013-Oct-13 04:31N 53°30' E 008°35'0 0.0
2013-Oct-13 03:32N 53°30' E 008°35'0 0.0
2013-Oct-13 02:32N 53°30' E 008°35'0 0.0
2013-Oct-13 01:33N 53°30' E 008°35'0 0.0
2013-Oct-13 00:28N 53°30' E 008°35'0 0.0
2013-Oct-12 23:31N 53°30' E 008°35'0 0.0
2013-Oct-12 22:32N 53°30' E 008°35'0 0.0
2013-Oct-12 21:30N 53°30' E 008°35'0 0.0
2013-Oct-12 20:33N 53°30' E 008°35'0 0.0
2013-Oct-12 19:31N 53°30' E 008°35'0 0.0
2013-Oct-12 18:32N 53°30' E 008°35'0 0.0
2013-Oct-12 17:32N 53°30' E 008°35'0 0.0
2013-Oct-12 16:33N 53°30' E 008°35'0 0.0
2013-Oct-12 15:31N 53°30' E 008°35'0 0.0
2013-Oct-12 14:31N 53°30' E 008°35'0 0.0
2013-Oct-12 13:32N 53°30' E 008°35'0 0.0
2013-Oct-12 12:33N 53°30' E 008°35'0 0.0
2013-Oct-12 11:33N 53°30' E 008°35'0 0.0
2013-Oct-12 10:28N 53°30' E 008°35'0 0.0
2013-Oct-12 09:32N 53°30' E 008°35'0 0.0
2013-Oct-12 08:32N 53°30' E 008°35'0 0.0
2013-Oct-12 07:30N 53°30' E 008°35'0 0.0
2013-Oct-12 06:31N 53°30' E 008°35'0 0.0
2013-Oct-12 05:31N 53°30' E 008°35'0 0.0
2013-Oct-12 04:32N 53°30' E 008°35'0 0.0
2013-Oct-12 03:33N 53°30' E 008°35'0 0.0
2013-Oct-12 02:33N 53°30' E 008°35'0 0.0
2013-Oct-12 01:31N 53°30' E 008°35'0 0.0
2013-Oct-12 00:32N 53°30' E 008°35'0 0.0
2013-Oct-11 23:32N 53°30' E 008°35'0 0.0
2013-Oct-11 22:27N 53°30' E 008°35'0 0.0
2013-Oct-11 21:31N 53°30' E 008°35'0 0.0
2013-Oct-11 20:31N 53°30' E 008°35'0 0.0
2013-Oct-11 19:32N 53°30' E 008°35'0 0.0
2013-Oct-11 18:33N 53°30' E 008°35'0 0.0
2013-Oct-11 17:30N 53°30' E 008°35'0 0.0
2013-Oct-11 16:31N 53°30' E 008°35'0 0.0
2013-Oct-11 15:32N 53°30' E 008°35'0 0.0
2013-Oct-11 14:32N 53°30' E 008°35'0 0.0
2013-Oct-11 13:33N 53°30' E 008°35'0 0.0
2013-Oct-11 12:31N 53°30' E 008°35'0 0.0
2013-Oct-11 11:31N 53°30' E 008°35'0 0.0
2013-Oct-11 10:32N 53°30' E 008°35'0 0.0
2013-Oct-11 09:33N 53°30' E 008°35'0 0.0
2013-Oct-11 08:33N 53°30' E 008°35'0 0.0
2013-Oct-11 07:28N 53°30' E 008°35'0 0.0
2013-Oct-11 06:32N 53°30' E 008°35'0 0.0
2013-Oct-11 05:32N 53°30' E 008°35'0 0.0
2013-Oct-11 04:33N 53°30' E 008°35'0 0.0
2013-Oct-11 03:31N 53°30' E 008°35'0 0.0
2013-Oct-11 02:31N 53°30' E 008°35'0 0.0
2013-Oct-11 01:32N 53°30' E 008°35'0 0.0
2013-Oct-11 00:33N 53°30' E 008°35'0 0.0
2013-Oct-10 23:33N 53°30' E 008°35'0 0.0
2013-Oct-10 22:31N 53°30' E 008°35'0 0.0
2013-Oct-10 21:32N 53°30' E 008°35'0 0.0
2013-Oct-10 20:32N 53°30' E 008°35'0 0.0
2013-Oct-10 19:33N 53°30' E 008°35'0 0.0
2013-Oct-10 18:31N 53°30' E 008°35'0 0.0
2013-Oct-10 17:31N 53°30' E 008°35'0 0.0
2013-Oct-10 16:32N 53°30' E 008°35'0 0.0
2013-Oct-10 15:33N 53°30' E 008°35'0 0.0
2013-Oct-10 14:33N 53°30' E 008°35'0 0.0
2013-Oct-10 13:31N 53°30' E 008°35'0 0.0
2013-Oct-10 12:32N 53°30' E 008°35'0 0.0
2013-Oct-10 11:32N 53°30' E 008°35'0 0.0
2013-Oct-10 10:33N 53°30' E 008°35'0 0.0
2013-Oct-10 09:31N 53°30' E 008°35'0 0.0
2013-Oct-10 08:31N 53°30' E 008°35'0 0.0
2013-Oct-10 07:32N 53°30' E 008°35'0 0.0
2013-Oct-10 06:33N 53°30' E 008°35'0 0.0
2013-Oct-10 05:33N 53°30' E 008°35'0 0.0
2013-Oct-10 04:31N 53°30' E 008°35'0 0.0
2013-Oct-10 03:32N 53°30' E 008°35'0 0.0
2013-Oct-10 02:32N 53°30' E 008°35'0 0.0
2013-Oct-10 01:33N 53°30' E 008°35'0 0.0
2013-Oct-10 00:31N 53°30' E 008°35'0 0.0
2013-Oct-09 23:31N 53°30' E 008°35'0 0.0
2013-Oct-09 22:32N 53°30' E 008°35'0 0.0
2013-Oct-09 21:33N 53°30' E 008°35'0 0.0
2013-Oct-09 20:33N 53°30' E 008°35'0 0.0
2013-Oct-09 19:31N 53°30' E 008°35'0 0.0
2013-Oct-09 18:32N 53°30' E 008°35'0 0.0
2013-Oct-09 17:32N 53°30' E 008°35'0 0.0
2013-Oct-09 16:33N 53°30' E 008°35'0 0.0
2013-Oct-09 15:31N 53°30' E 008°35'0 0.0
2013-Oct-09 14:28N 53°30' E 008°35'0 0.0
2013-Oct-09 13:32N 53°30' E 008°35'0 0.0
2013-Oct-09 12:30N 53°30' E 008°35'0 0.0
2013-Oct-09 11:33N 53°30' E 008°35'0 0.0
2013-Oct-09 10:31N 53°30' E 008°35'0 0.0
2013-Oct-09 09:29N 53°30' E 008°35'0 0.0
2013-Oct-09 08:32N 53°30' E 008°35'0 0.0
2013-Oct-09 07:33N 53°30' E 008°35'0 0.0
2013-Oct-09 06:31N 53°30' E 008°35'0 0.0
2013-Oct-09 05:31N 53°30' E 008°35'0 0.0
2013-Oct-09 04:32N 53°30' E 008°35'0 0.0
2013-Oct-09 03:33N 53°30' E 008°35'0 0.0
2013-Oct-09 02:33N 53°30' E 008°35'0 0.0
2013-Oct-09 01:31N 53°30' E 008°35'0 0.0
2013-Oct-09 00:32N 53°30' E 008°35'0 0.0
2013-Oct-08 23:32N 53°30' E 008°35'0 0.0
2013-Oct-08 22:33N 53°30' E 008°35'0 0.0
2013-Oct-08 21:31N 53°30' E 008°35'0 0.0
2013-Oct-08 20:31N 53°30' E 008°35'0 0.0
2013-Oct-08 19:32N 53°30' E 008°35'0 0.0
2013-Oct-08 18:33N 53°30' E 008°35'0 0.0
2013-Oct-08 17:33N 53°30' E 008°35'0 0.0
2013-Oct-08 16:28N 53°30' E 008°35'0 0.0
2013-Oct-08 15:32N 53°30' E 008°35'0 0.0
2013-Oct-08 14:32N 53°30' E 008°35'0 0.0
2013-Oct-08 13:33N 53°30' E 008°35'0 0.0
2013-Oct-08 12:31N 53°30' E 008°35'0 0.0
2013-Oct-08 11:31N 53°30' E 008°35'0 0.0
2013-Oct-08 10:32N 53°30' E 008°35'0 0.0
2013-Oct-08 09:33N 53°30' E 008°35'0 0.0
2013-Oct-08 08:33N 53°30' E 008°35'0 0.0
2013-Oct-08 07:28N 53°30' E 008°35'0 0.0
2013-Oct-08 06:32N 53°30' E 008°35'0 0.0
2013-Oct-08 05:32N 53°30' E 008°35'0 0.0
2013-Oct-08 04:33N 53°30' E 008°35'0 0.0
2013-Oct-08 03:31N 53°30' E 008°35'0 0.0
2013-Oct-08 02:28N 53°30' E 008°35'0 0.0
2013-Oct-08 01:32N 53°30' E 008°35'0 0.0
2013-Oct-08 00:33N 53°30' E 008°35'0 0.0
2013-Oct-07 23:33N 53°30' E 008°35'0 0.0
2013-Oct-07 22:31N 53°30' E 008°35'0 0.0
2013-Oct-07 21:32N 53°30' E 008°35'0 0.0
2013-Oct-07 20:32N 53°30' E 008°35'0 0.0
2013-Oct-07 19:33N 53°30' E 008°35'0 0.0
2013-Oct-07 18:31N 53°30' E 008°35'0 0.0
2013-Oct-07 17:31N 53°30' E 008°35'0 0.0
2013-Oct-07 16:32N 53°30' E 008°35'0 0.0
2013-Oct-07 15:33N 53°30' E 008°35'0 0.0
2013-Oct-07 14:33N 53°30' E 008°35'0 0.0
2013-Oct-07 13:31N 53°30' E 008°35'0 0.0
2013-Oct-07 12:29N 53°30' E 008°35'0 0.0
2013-Oct-07 11:32N 53°30' E 008°35'0 0.0
2013-Oct-07 10:33N 53°30' E 008°35'0 0.0
2013-Oct-07 09:31N 53°30' E 008°35'0 0.0
2013-Oct-07 08:31N 53°30' E 008°35'0 0.0
2013-Oct-07 07:32N 53°30' E 008°35'0 0.0
2013-Oct-07 06:33N 53°30' E 008°35'0 0.0
2013-Oct-07 05:33N 53°30' E 008°35'0 0.0
2013-Oct-07 04:31N 53°30' E 008°35'0 0.0
2013-Oct-07 03:32N 53°30' E 008°35'0 0.0
2013-Oct-07 02:32N 53°30' E 008°35'0 0.0
2013-Oct-07 01:33N 53°30' E 008°35'0 0.0
2013-Oct-07 00:31N 53°30' E 008°35'0 0.0
2013-Oct-06 23:31N 53°30' E 008°35'0 0.0
2013-Oct-06 22:32N 53°30' E 008°35'0 0.0
2013-Oct-06 21:33N 53°30' E 008°35'0 0.0
2013-Oct-06 20:33N 53°30' E 008°35'0 0.0
2013-Oct-06 19:31N 53°30' E 008°35'0 0.0
2013-Oct-06 18:32N 53°30' E 008°35'0 0.0
2013-Oct-06 17:32N 53°30' E 008°35'0 0.0
2013-Oct-06 16:33N 53°30' E 008°35'0 0.0
2013-Oct-06 15:31N 53°30' E 008°35'0 0.0
2013-Oct-06 14:31N 53°30' E 008°35'0 0.0
2013-Oct-06 13:32N 53°30' E 008°35'0 0.0
2013-Oct-06 12:33N 53°30' E 008°35'0 0.0
2013-Oct-06 11:33N 53°30' E 008°35'0 0.0
2013-Oct-06 10:31N 53°30' E 008°35'0 0.0
2013-Oct-06 09:32N 53°30' E 008°35'0 0.0
2013-Oct-06 08:32N 53°30' E 008°35'0 0.0
2013-Oct-06 07:33N 53°30' E 008°35'  

Dump ship's entire track history

sailing weather and tide predictions

Al Mirqab — ZCTS4 — position and weather